Time;durP1;ratioP1;P1;durP2;ratioP2;P2;SDS_P1;SDS_P2;PMS_P1;PMS_P2;Temp;Humidity;BMP_temperature;BMP_pressure;BME280_temperature;BME280_humidity;BME280_pressure;Samples;Min_cycle;Max_cycle;Signal;HPM_P1;HPM_P2
2023/06/30 00:01:21;;;;;;;2.40;1.10;;;;;;;;;;5057291;28;20036;-76
2023/06/30 00:03:47;;;;;;;2.97;1.33;;;;;;;;;;5040475;28;20036;-76
2023/06/30 00:06:12;;;;;;;1.65;1.10;;;;;;;;;;5071044;28;20047;-76
2023/06/30 00:08:38;;;;;;;2.65;1.08;;;;;;;;;;5095070;28;20036;-76
2023/06/30 00:11:03;;;;;;;1.83;1.23;;;;;;;;;;5095010;28;20050;-75
2023/06/30 00:13:28;;;;;;;0.93;0.90;;;;;;;;;;5095006;28;20028;-78
2023/06/30 00:15:54;;;;;;;2.03;1.02;;;;;;;;;;5077244;28;20532;-76
2023/06/30 00:18:20;;;;;;;1.20;1.00;;;;;;;;;;5095313;28;20043;-76
2023/06/30 00:20:45;;;;;;;2.65;1.20;;;;;;;;;;5095035;28;20028;-76
2023/06/30 00:23:13;;;;;;;1.73;1.13;;;;;;;;;;5076432;28;20028;-75
2023/06/30 00:25:38;;;;;;;4.22;1.40;;;;;;;;;;5076785;28;20016;-75
2023/06/30 00:28:04;;;;;;;1.30;1.20;;;;;;;;;;5095013;28;20028;-75
2023/06/30 00:30:29;;;;;;;2.45;1.10;;;;;;;;;;5094887;28;20106;-75
2023/06/30 00:32:54;;;;;;;2.08;1.02;;;;;;;;;;5076558;28;20459;-75
2023/06/30 00:35:20;;;;;;;2.67;1.20;;;;;;;;;;5076759;28;20538;-75
2023/06/30 00:37:45;;;;;;;2.58;1.20;;;;;;;;;;5094766;28;20024;-75
2023/06/30 00:40:11;;;;;;;1.90;1.00;;;;;;;;;;5094405;28;20028;-75
2023/06/30 00:42:37;;;;;;;1.90;1.08;;;;;;;;;;5076408;28;20035;-76
2023/06/30 00:45:02;;;;;;;1.83;1.00;;;;;;;;;;5094336;28;20406;-76
2023/06/30 00:47:29;;;;;;;1.88;1.17;;;;;;;;;;5094557;28;20482;-76
2023/06/30 00:49:55;;;;;;;1.73;1.13;;;;;;;;;;5059863;28;20475;-76
2023/06/30 00:52:20;;;;;;;4.20;1.63;;;;;;;;;;5059399;28;20031;-76
2023/06/30 00:54:45;;;;;;;3.05;1.05;;;;;;;;;;5094479;28;20020;-75
2023/06/30 00:57:11;;;;;;;1.98;1.05;;;;;;;;;;5076360;28;20499;-76
2023/06/30 00:59:36;;;;;;;2.58;1.30;;;;;;;;;;5075956;28;20047;-76
2023/06/30 01:02:10;;;;;;;3.28;1.63;;;;;;;;;;5094571;28;20113;-75
2023/06/30 01:04:37;;;;;;;2.38;1.38;;;;;;;;;;5075774;28;20103;-75
2023/06/30 01:07:23;;;;;;;0.85;0.77;;;;;;;;;;5076224;28;20107;-76
2023/06/30 01:09:54;;;;;;;2.10;1.20;;;;;;;;;;5075692;28;20107;-76
2023/06/30 01:12:20;;;;;;;2.33;1.20;;;;;;;;;;5075739;28;20020;-75
2023/06/30 01:14:46;;;;;;;2.17;1.30;;;;;;;;;;5075657;28;20051;-76
2023/06/30 01:17:12;;;;;;;2.00;1.10;;;;;;;;;;5058884;28;20066;-75
2023/06/30 01:19:39;;;;;;;2.80;1.00;;;;;;;;;;5058771;28;20063;-75
2023/06/30 01:22:13;;;;;;;2.35;1.30;;;;;;;;;;5058846;28;20547;-75
2023/06/30 01:24:39;;;;;;;2.38;1.10;;;;;;;;;;5076181;28;20031;-76
2023/06/30 01:27:05;;;;;;;1.95;1.20;;;;;;;;;;5075837;28;20355;-76
2023/06/30 01:29:30;;;;;;;3.17;1.20;;;;;;;;;;5075783;28;20028;-77
2023/06/30 01:31:56;;;;;;;2.25;1.15;;;;;;;;;;5093586;28;20482;-76
2023/06/30 01:34:21;;;;;;;1.88;1.10;;;;;;;;;;5074632;28;20034;-76
2023/06/30 01:36:47;;;;;;;1.55;1.20;;;;;;;;;;5093419;28;20059;-75
2023/06/30 01:39:13;;;;;;;2.90;1.10;;;;;;;;;;5093638;28;20085;-75
2023/06/30 01:41:38;;;;;;;2.70;1.25;;;;;;;;;;5093579;28;20073;-75
2023/06/30 01:44:04;;;;;;;3.25;1.30;;;;;;;;;;5075811;28;20382;-75
2023/06/30 01:46:29;;;;;;;2.75;1.30;;;;;;;;;;5075264;28;20054;-75
2023/06/30 01:48:55;;;;;;;2.15;1.13;;;;;;;;;;5075388;28;20036;-75
2023/06/30 01:51:20;;;;;;;3.15;1.20;;;;;;;;;;5075496;28;20023;-76
2023/06/30 01:53:46;;;;;;;3.30;1.23;;;;;;;;;;5075429;28;20085;-75
2023/06/30 01:56:11;;;;;;;2.25;1.10;;;;;;;;;;5075399;28;20386;-75
2023/06/30 01:58:36;;;;;;;1.75;1.08;;;;;;;;;;5075042;28;20111;-75
2023/06/30 02:01:02;;;;;;;1.77;1.13;;;;;;;;;;5093092;28;20036;-75
2023/06/30 02:03:27;;;;;;;1.33;0.90;;;;;;;;;;5074835;28;20036;-76
2023/06/30 02:05:54;;;;;;;2.85;1.23;;;;;;;;;;5058222;28;20101;-76
2023/06/30 02:08:19;;;;;;;1.60;0.90;;;;;;;;;;5092819;28;20035;-76
2023/06/30 02:10:44;;;;;;;2.10;1.17;;;;;;;;;;5074941;28;20382;-75
2023/06/30 02:13:10;;;;;;;1.73;1.05;;;;;;;;;;5093212;28;20047;-75
2023/06/30 02:15:35;;;;;;;1.60;1.02;;;;;;;;;;5075498;28;20030;-76
2023/06/30 02:18:00;;;;;;;4.03;1.13;;;;;;;;;;5093287;28;20454;-76
2023/06/30 02:20:26;;;;;;;3.33;1.10;;;;;;;;;;5075072;28;20085;-76
2023/06/30 02:22:51;;;;;;;1.50;1.05;;;;;;;;;;5075153;28;20490;-75
2023/06/30 02:25:17;;;;;;;4.25;1.23;;;;;;;;;;5041527;28;20097;-75
2023/06/30 02:27:45;;;;;;;2.38;1.15;;;;;;;;;;5075083;28;20081;-75
2023/06/30 02:30:11;;;;;;;1.52;1.02;;;;;;;;;;5075546;28;20024;-75
2023/06/30 02:32:40;;;;;;;4.28;1.23;;;;;;;;;;5093040;28;20024;-76
2023/06/30 02:35:06;;;;;;;1.70;1.10;;;;;;;;;;5074739;28;20028;-76
2023/06/30 02:37:31;;;;;;;1.20;0.93;;;;;;;;;;5074688;28;20028;-75
2023/06/30 02:39:57;;;;;;;1.02;0.90;;;;;;;;;;5074915;28;20035;-75
2023/06/30 02:42:22;;;;;;;2.80;1.40;;;;;;;;;;5074681;28;20039;-75
2023/06/30 02:44:47;;;;;;;4.22;1.30;;;;;;;;;;5074875;28;20034;-75
2023/06/30 02:47:13;;;;;;;2.40;1.15;;;;;;;;;;5078646;28;20379;-75
2023/06/30 02:49:38;;;;;;;1.13;0.93;;;;;;;;;;5078722;28;20055;-75
2023/06/30 02:52:04;;;;;;;3.35;1.50;;;;;;;;;;5096828;28;20031;-77
2023/06/30 02:54:29;;;;;;;3.35;1.00;;;;;;;;;;5078720;28;20427;-75
2023/06/30 02:56:55;;;;;;;1.63;1.08;;;;;;;;;;5078325;28;20028;-75
2023/06/30 02:59:20;;;;;;;1.00;0.90;;;;;;;;;;5096357;28;20024;-75
2023/06/30 03:01:45;;;;;;;3.83;1.13;;;;;;;;;;5078540;28;20360;-75
2023/06/30 03:04:11;;;;;;;3.75;1.20;;;;;;;;;;5061969;28;20028;-75
2023/06/30 03:06:36;;;;;;;2.85;1.30;;;;;;;;;;5096040;28;20468;-76
2023/06/30 03:09:02;;;;;;;1.73;1.17;;;;;;;;;;5078280;28;20443;-75
2023/06/30 03:11:27;;;;;;;2.72;1.33;;;;;;;;;;5078366;28;20036;-76
2023/06/30 03:13:53;;;;;;;1.95;1.20;;;;;;;;;;5096389;28;20032;-75
2023/06/30 03:16:18;;;;;;;3.63;1.38;;;;;;;;;;5078441;28;20105;-75
2023/06/30 03:18:44;;;;;;;2.05;1.20;;;;;;;;;;5096366;28;20036;-75
2023/06/30 03:21:09;;;;;;;1.15;1.02;;;;;;;;;;5096003;28;20125;-76
2023/06/30 03:23:35;;;;;;;2.97;1.48;;;;;;;;;;5078087;28;20077;-76
2023/06/30 03:26:01;;;;;;;1.10;1.00;;;;;;;;;;5077970;28;20031;-77
2023/06/30 03:28:26;;;;;;;2.92;1.20;;;;;;;;;;5096065;28;20110;-77
2023/06/30 03:30:52;;;;;;;1.58;1.00;;;;;;;;;;5077570;28;20030;-77
2023/06/30 03:33:18;;;;;;;1.77;1.10;;;;;;;;;;5077592;28;20489;-76
2023/06/30 03:35:43;;;;;;;2.28;1.10;;;;;;;;;;5077323;28;20450;-76
2023/06/30 03:38:09;;;;;;;2.92;1.30;;;;;;;;;;5095448;28;20471;-76
2023/06/30 03:40:34;;;;;;;1.42;1.00;;;;;;;;;;5095464;28;20412;-76
2023/06/30 03:42:59;;;;;;;1.10;1.00;;;;;;;;;;5095684;28;20039;-76
2023/06/30 03:45:25;;;;;;;1.80;1.08;;;;;;;;;;5095369;28;20024;-77
2023/06/30 03:47:50;;;;;;;1.98;1.00;;;;;;;;;;5095657;28;20028;-76
2023/06/30 03:50:15;;;;;;;1.33;1.10;;;;;;;;;;5095405;28;20016;-77
2023/06/30 03:52:41;;;;;;;1.65;1.10;;;;;;;;;;5095267;28;20032;-76
2023/06/30 03:55:07;;;;;;;1.73;1.20;;;;;;;;;;5077023;28;20394;-77
2023/06/30 03:57:32;;;;;;;1.75;1.00;;;;;;;;;;5059484;28;20028;-77
2023/06/30 03:59:57;;;;;;;1.67;1.20;;;;;;;;;;5095120;28;20024;-77
2023/06/30 04:02:23;;;;;;;1.35;1.17;;;;;;;;;;5095306;28;20024;-77
2023/06/30 04:04:48;;;;;;;1.70;0.90;;;;;;;;;;5095793;28;20071;-78
2023/06/30 04:07:14;;;;;;;2.78;1.52;;;;;;;;;;5077663;28;20512;-77
2023/06/30 04:09:39;;;;;;;2.13;1.35;;;;;;;;;;5077218;28;20103;-76
2023/06/30 04:12:05;;;;;;;1.55;1.05;;;;;;;;;;5095570;28;20089;-78
2023/06/30 04:14:30;;;;;;;2.05;1.30;;;;;;;;;;5095318;28;20024;-77
2023/06/30 04:16:56;;;;;;;3.33;1.10;;;;;;;;;;5060630;28;20062;-77
2023/06/30 04:19:21;;;;;;;2.40;1.35;;;;;;;;;;5095456;28;20107;-77
2023/06/30 04:21:47;;;;;;;0.90;0.90;;;;;;;;;;5077123;28;20028;-77
2023/06/30 04:24:13;;;;;;;2.08;1.40;;;;;;;;;;5060553;28;20055;-77
2023/06/30 04:26:38;;;;;;;2.75;1.60;;;;;;;;;;5077553;28;20055;-77
2023/06/30 04:29:03;;;;;;;4.43;1.75;;;;;;;;;;5095082;28;20032;-77
2023/06/30 04:31:29;;;;;;;5.22;1.75;;;;;;;;;;5060153;28;20024;-77
2023/06/30 04:33:54;;;;;;;5.50;2.53;;;;;;;;;;5076811;28;20032;-77
2023/06/30 04:36:20;;;;;;;5.72;1.92;;;;;;;;;;5095077;28;20034;-77
2023/06/30 04:38:48;;;;;;;5.43;1.80;;;;;;;;;;5076636;28;20502;-77
2023/06/30 04:41:13;;;;;;;7.63;2.00;;;;;;;;;;5094929;28;20054;-77
2023/06/30 04:43:40;;;;;;;3.92;1.70;;;;;;;;;;5060060;28;20051;-76
2023/06/30 04:46:06;;;;;;;4.45;2.08;;;;;;;;;;5078616;28;20379;-77
2023/06/30 04:48:32;;;;;;;3.30;1.80;;;;;;;;;;5073418;28;20042;-77
2023/06/30 04:50:57;;;;;;;4.10;1.80;;;;;;;;;;5065889;28;20103;-77
2023/06/30 04:53:22;;;;;;;4.57;2.10;;;;;;;;;;5075659;28;20039;-77
2023/06/30 04:55:49;;;;;;;3.97;1.80;;;;;;;;;;5093458;28;20052;-76
2023/06/30 04:58:14;;;;;;;3.40;1.42;;;;;;;;;;5058646;28;20042;-77
2023/06/30 05:00:40;;;;;;;3.47;1.55;;;;;;;;;;5075599;28;20111;-78
2023/06/30 05:03:06;;;;;;;2.65;1.60;;;;;;;;;;5094228;28;20475;-75
2023/06/30 05:05:31;;;;;;;3.42;1.50;;;;;;;;;;5050987;28;20095;-75
2023/06/30 05:07:57;;;;;;;3.20;1.52;;;;;;;;;;5073609;28;20029;-75
2023/06/30 05:10:22;;;;;;;2.85;1.40;;;;;;;;;;5054886;28;20029;-76
2023/06/30 05:12:48;;;;;;;5.60;1.40;;;;;;;;;;5073852;28;20082;-77
2023/06/30 05:15:14;;;;;;;2.67;1.70;;;;;;;;;;5052548;28;20071;-76
2023/06/30 05:17:39;;;;;;;3.58;1.33;;;;;;;;;;5019422;28;20076;-75
2023/06/30 05:20:08;;;;;;;3.05;1.40;;;;;;;;;;5053862;28;20028;-77
2023/06/30 05:22:33;;;;;;;2.47;1.05;;;;;;;;;;5036303;28;20029;-76
2023/06/30 05:24:59;;;;;;;2.63;1.40;;;;;;;;;;5035942;28;20040;-77
2023/06/30 05:27:24;;;;;;;2.08;1.08;;;;;;;;;;5019114;28;20446;-77
2023/06/30 05:29:50;;;;;;;3.05;1.40;;;;;;;;;;5019335;28;20115;-78
2023/06/30 05:32:15;;;;;;;3.10;1.30;;;;;;;;;;5053362;28;20029;-77
2023/06/30 05:34:43;;;;;;;2.85;1.40;;;;;;;;;;5053564;28;20108;-77
2023/06/30 05:37:09;;;;;;;2.22;1.45;;;;;;;;;;5035384;28;20029;-76
2023/06/30 05:39:35;;;;;;;3.28;1.38;;;;;;;;;;5019184;28;20043;-76
2023/06/30 05:42:01;;;;;;;3.03;1.30;;;;;;;;;;5035856;28;20152;-77
2023/06/30 05:44:26;;;;;;;2.28;1.27;;;;;;;;;;5035568;28;20037;-77
2023/06/30 05:46:52;;;;;;;4.68;1.50;;;;;;;;;;5055154;28;20043;-78
2023/06/30 05:49:17;;;;;;;3.20;1.45;;;;;;;;;;5019003;28;20040;-77
2023/06/30 05:51:43;;;;;;;2.00;1.15;;;;;;;;;;5035527;28;20115;-77
2023/06/30 05:54:10;;;;;;;3.20;1.33;;;;;;;;;;5018853;28;20071;-78
2023/06/30 05:56:36;;;;;;;2.22;1.50;;;;;;;;;;5053314;28;20514;-76
2023/06/30 05:59:01;;;;;;;6.60;1.20;;;;;;;;;;5035255;28;20033;-75
2023/06/30 06:01:26;;;;;;;3.20;1.48;;;;;;;;;;5053149;28;20545;-76
2023/06/30 06:03:52;;;;;;;2.50;1.20;;;;;;;;;;5053142;28;20037;-75
2023/06/30 06:06:17;;;;;;;4.65;1.40;;;;;;;;;;5067744;28;20045;-78
2023/06/30 06:08:46;;;;;;;8.95;1.60;;;;;;;;;;5072977;28;20494;-76
2023/06/30 06:11:12;;;;;;;8.90;2.15;;;;;;;;;;5055323;28;20081;-76
2023/06/30 06:13:38;;;;;;;11.98;2.03;;;;;;;;;;5055040;28;20028;-78
2023/06/30 06:16:05;;;;;;;4.25;1.40;;;;;;;;;;5042499;28;20064;-74
2023/06/30 06:18:31;;;;;;;3.20;1.35;;;;;;;;;;5054961;28;20532;-76
2023/06/30 06:20:57;;;;;;;2.85;1.30;;;;;;;;;;5040603;28;20391;-76
2023/06/30 06:23:22;;;;;;;4.82;1.50;;;;;;;;;;5059962;28;20033;-75
2023/06/30 06:25:48;;;;;;;3.78;1.40;;;;;;;;;;5059145;28;20033;-76
2023/06/30 06:28:14;;;;;;;5.13;1.67;;;;;;;;;;5042296;28;20533;-76
2023/06/30 06:30:40;;;;;;;5.15;1.52;;;;;;;;;;5026038;28;20056;-75
2023/06/30 06:33:05;;;;;;;3.25;1.27;;;;;;;;;;5058939;28;20352;-77
2023/06/30 06:35:31;;;;;;;3.78;1.20;;;;;;;;;;5077129;28;20111;-76
2023/06/30 06:37:56;;;;;;;2.90;1.10;;;;;;;;;;5058955;28;20094;-77
2023/06/30 06:40:22;;;;;;;3.35;1.17;;;;;;;;;;5076892;28;20028;-77
2023/06/30 06:42:47;;;;;;;1.27;0.93;;;;;;;;;;5076831;28;20036;-76
2023/06/30 06:45:13;;;;;;;4.78;1.20;;;;;;;;;;5062101;28;20035;-76
2023/06/30 06:48:16;;;;;;;4.07;1.30;;;;;;;;;;5078721;28;20064;-77
2023/06/30 06:50:41;;;;;;;2.85;1.27;;;;;;;;;;5058605;28;20086;-77
2023/06/30 06:53:07;;;;;;;2.80;1.30;;;;;;;;;;5076459;28;20484;-76
2023/06/30 06:55:32;;;;;;;2.83;1.10;;;;;;;;;;5058614;28;20028;-76
2023/06/30 06:57:58;;;;;;;1.70;1.05;;;;;;;;;;5058836;28;20475;-77
2023/06/30 07:00:23;;;;;;;4.53;1.20;;;;;;;;;;5076170;28;20122;-77
2023/06/30 07:02:48;;;;;;;2.28;1.08;;;;;;;;;;5076332;28;20039;-76
2023/06/30 07:05:14;;;;;;;3.10;1.20;;;;;;;;;;5035656;28;20064;-77
2023/06/30 07:07:39;;;;;;;2.45;1.02;;;;;;;;;;5021882;28;20037;-76
2023/06/30 07:10:06;;;;;;;4.32;1.50;;;;;;;;;;5055943;28;20032;-76
2023/06/30 07:12:31;;;;;;;3.65;1.23;;;;;;;;;;5038256;28;20024;-77
2023/06/30 07:14:57;;;;;;;3.83;1.17;;;;;;;;;;5023143;28;20399;-77
2023/06/30 07:17:22;;;;;;;7.63;1.30;;;;;;;;;;5041480;28;20028;-77
2023/06/30 07:19:47;;;;;;;2.53;1.08;;;;;;;;;;5057986;28;20131;-77
2023/06/30 07:22:13;;;;;;;3.83;1.23;;;;;;;;;;5076155;28;20063;-77
2023/06/30 07:24:39;;;;;;;3.97;1.20;;;;;;;;;;5075940;28;20033;-77
2023/06/30 07:27:05;;;;;;;3.63;1.10;;;;;;;;;;5075517;28;20028;-77
2023/06/30 07:29:30;;;;;;;9.27;1.40;;;;;;;;;;5041384;28;20036;-77
2023/06/30 07:31:55;;;;;;;2.70;1.23;;;;;;;;;;5056861;28;20542;-77
2023/06/30 07:34:23;;;;;;;3.47;1.40;;;;;;;;;;5075887;28;20028;-77
2023/06/30 07:36:49;;;;;;;3.60;1.27;;;;;;;;;;5057920;28;20056;-77
2023/06/30 07:39:15;;;;;;;3.08;1.20;;;;;;;;;;5075437;28;20116;-77
2023/06/30 07:41:40;;;;;;;5.82;1.10;;;;;;;;;;5057594;28;20555;-76
2023/06/30 07:44:05;;;;;;;1.85;1.17;;;;;;;;;;5057990;28;20036;-76
2023/06/30 07:46:31;;;;;;;35.40;6.38;;;;;;;;;;5052140;28;20063;-77
2023/06/30 07:48:56;;;;;;;20.02;4.53;;;;;;;;;;5055929;28;20033;-76
2023/06/30 07:51:22;;;;;;;22.70;5.38;;;;;;;;;;5055745;28;20025;-76
2023/06/30 07:53:47;;;;;;;23.38;5.07;;;;;;;;;;5037681;28;20391;-77
2023/06/30 07:56:13;;;;;;;16.95;4.63;;;;;;;;;;5058035;28;20033;-76
2023/06/30 07:58:38;;;;;;;16.20;4.53;;;;;;;;;;5075476;28;20543;-76
2023/06/30 08:01:03;;;;;;;16.17;4.25;;;;;;;;;;5056952;28;20043;-76
2023/06/30 08:03:29;;;;;;;13.18;3.70;;;;;;;;;;5058319;28;20035;-76
2023/06/30 08:05:58;;;;;;;12.02;3.33;;;;;;;;;;5087613;28;20064;-77
2023/06/30 08:08:23;;;;;;;10.82;3.58;;;;;;;;;;5096720;28;20036;-77
2023/06/30 08:10:49;;;;;;;36.00;8.63;;;;;;;;;;5045387;28;20394;-76
2023/06/30 08:13:15;;;;;;;15.15;4.82;;;;;;;;;;5077817;28;20572;-77
2023/06/30 08:15:41;;;;;;;15.48;3.72;;;;;;;;;;5077437;28;20023;-77
2023/06/30 08:18:07;;;;;;;20.92;4.22;;;;;;;;;;5045018;28;20119;-76
2023/06/30 08:20:33;;;;;;;12.60;3.67;;;;;;;;;;5060126;28;20376;-77
2023/06/30 08:23:00;;;;;;;9.32;3.30;;;;;;;;;;5060561;28;20248;-76
2023/06/30 08:25:26;;;;;;;12.75;3.72;;;;;;;;;;5075999;28;20386;-77
2023/06/30 08:27:52;;;;;;;7.45;2.92;;;;;;;;;;5057753;28;20033;-76
2023/06/30 08:30:18;;;;;;;9.00;2.90;;;;;;;;;;5075546;28;20028;-76
2023/06/30 08:32:44;;;;;;;8.70;3.08;;;;;;;;;;5057735;28;20411;-76
2023/06/30 08:35:09;;;;;;;9.32;3.08;;;;;;;;;;5056857;28;20032;-76
2023/06/30 08:37:35;;;;;;;6.78;2.47;;;;;;;;;;5074821;28;20486;-76
2023/06/30 08:40:01;;;;;;;7.78;2.20;;;;;;;;;;5074733;28;20025;-76
2023/06/30 08:42:28;;;;;;;7.50;2.67;;;;;;;;;;5066986;28;20031;-76
2023/06/30 08:44:55;;;;;;;5.90;2.00;;;;;;;;;;5076148;28;20020;-76
2023/06/30 08:47:24;;;;;;;5.57;2.13;;;;;;;;;;5076814;28;20395;-76
2023/06/30 08:49:49;;;;;;;5.97;1.90;;;;;;;;;;5059947;28;20088;-76
2023/06/30 08:52:15;;;;;;;4.65;1.80;;;;;;;;;;5095104;28;20110;-75
2023/06/30 08:54:41;;;;;;;4.35;1.80;;;;;;;;;;5060010;28;20103;-75
2023/06/30 08:57:06;;;;;;;4.28;1.77;;;;;;;;;;5076932;28;20024;-76
2023/06/30 08:59:31;;;;;;;4.85;1.50;;;;;;;;;;5094835;28;20368;-75
2023/06/30 09:01:57;;;;;;;3.53;1.60;;;;;;;;;;5094766;28;20180;-76
2023/06/30 09:04:23;;;;;;;3.53;1.45;;;;;;;;;;5076874;28;20051;-76
2023/06/30 09:06:48;;;;;;;4.03;1.48;;;;;;;;;;5076352;28;20062;-76
2023/06/30 09:09:26;;;;;;;5.25;1.50;;;;;;;;;;5076322;28;20556;-76
2023/06/30 09:11:53;;;;;;;2.80;1.45;;;;;;;;;;5076595;28;20031;-76
2023/06/30 09:14:19;;;;;;;3.60;1.42;;;;;;;;;;5095006;28;20058;-76
2023/06/30 09:16:45;;;;;;;3.92;1.60;;;;;;;;;;5094825;28;20107;-77
2023/06/30 09:19:11;;;;;;;2.03;1.10;;;;;;;;;;5076615;28;20123;-76
2023/06/30 09:21:37;;;;;;;3.42;1.52;;;;;;;;;;5094573;28;20042;-76
2023/06/30 09:24:03;;;;;;;4.15;1.33;;;;;;;;;;5078993;28;20027;-77
2023/06/30 09:26:30;;;;;;;4.57;1.40;;;;;;;;;;5044189;28;20032;-77
2023/06/30 09:28:55;;;;;;;3.35;1.30;;;;;;;;;;5076966;28;20424;-76
2023/06/30 09:31:30;;;;;;;2.25;1.25;;;;;;;;;;5094394;28;20103;-76
2023/06/30 09:34:25;;;;;;;2.75;1.60;;;;;;;;;;5094274;28;20028;-76
2023/06/30 09:36:52;;;;;;;2.65;1.25;;;;;;;;;;5072816;28;20403;-76
2023/06/30 09:39:18;;;;;;;1.95;1.23;;;;;;;;;;5075810;28;20036;-76
2023/06/30 09:41:45;;;;;;;4.13;1.55;;;;;;;;;;5093988;28;20034;-77
2023/06/30 09:44:12;;;;;;;4.70;1.65;;;;;;;;;;5076125;28;20024;-77
2023/06/30 09:46:48;;;;;;;4.28;1.30;;;;;;;;;;5076036;28;20466;-77
2023/06/30 09:49:27;;;;;;;2.58;1.35;;;;;;;;;;5093827;28;20398;-77
2023/06/30 09:51:55;;;;;;;3.78;1.33;;;;;;;;;;5075686;28;20024;-77
2023/06/30 09:54:20;;;;;;;2.97;1.30;;;;;;;;;;5075645;28;20028;-77
2023/06/30 09:56:46;;;;;;;2.72;1.27;;;;;;;;;;5076068;28;20028;-76
2023/06/30 09:59:12;;;;;;;1.83;1.10;;;;;;;;;;5075657;28;20030;-76
2023/06/30 10:01:39;;;;;;;2.65;1.10;;;;;;;;;;5076034;28;20077;-76
2023/06/30 10:04:05;;;;;;;2.17;1.05;;;;;;;;;;5075974;28;20028;-76
2023/06/30 10:06:31;;;;;;;2.28;1.30;;;;;;;;;;5058529;28;20052;-76
2023/06/30 10:08:57;;;;;;;2.85;1.05;;;;;;;;;;5075447;28;20031;-76
2023/06/30 10:11:23;;;;;;;2.05;0.88;;;;;;;;;;5075703;28;20024;-76
2023/06/30 10:13:54;;;;;;;2.28;1.20;;;;;;;;;;5075434;28;20489;-76
2023/06/30 10:16:21;;;;;;;1.98;1.08;;;;;;;;;;5058676;28;20020;-76
2023/06/30 10:18:47;;;;;;;3.35;0.98;;;;;;;;;;5075654;28;20119;-77
2023/06/30 10:21:12;;;;;;;1.33;0.90;;;;;;;;;;5058736;28;20052;-76
2023/06/30 10:23:39;;;;;;;1.70;0.88;;;;;;;;;;5093626;28;20062;-78
2023/06/30 10:26:05;;;;;;;2.50;1.20;;;;;;;;;;5093658;28;20051;-77
2023/06/30 10:28:33;;;;;;;2.03;1.05;;;;;;;;;;5093600;28;20031;-77
2023/06/30 10:30:59;;;;;;;1.48;1.02;;;;;;;;;;5075362;28;20069;-77
2023/06/30 10:33:24;;;;;;;1.27;0.95;;;;;;;;;;5058386;28;20024;-77
2023/06/30 10:35:50;;;;;;;2.47;1.10;;;;;;;;;;5093625;28;20024;-77
2023/06/30 10:38:16;;;;;;;1.20;0.90;;;;;;;;;;5075230;28;20398;-77
2023/06/30 10:40:41;;;;;;;4.30;1.33;;;;;;;;;;5058255;28;20119;-77
2023/06/30 10:43:07;;;;;;;1.90;1.10;;;;;;;;;;5075122;28;20385;-77
2023/06/30 10:46:06;;;;;;;1.50;0.85;;;;;;;;;;5075167;28;20445;-76
2023/06/30 10:48:32;;;;;;;1.63;0.90;;;;;;;;;;5093399;28;20482;-76
2023/06/30 10:50:57;;;;;;;1.38;1.05;;;;;;;;;;5075090;28;20078;-76
2023/06/30 10:53:22;;;;;;;0.95;0.82;;;;;;;;;;5093617;28;20463;-76
2023/06/30 10:55:48;;;;;;;1.25;0.95;;;;;;;;;;5058343;28;20028;-76
2023/06/30 10:58:23;;;;;;;1.80;1.08;;;;;;;;;;5075109;28;20460;-76
2023/06/30 11:01:05;;;;;;;2.20;1.00;;;;;;;;;;5074873;28;20109;-75
2023/06/30 11:03:56;;;;;;;1.52;0.90;;;;;;;;;;5075373;28;20502;-76
2023/06/30 11:06:22;;;;;;;0.80;0.80;;;;;;;;;;5075773;28;20044;-76
2023/06/30 11:09:09;;;;;;;1.77;1.00;;;;;;;;;;5078597;28;20126;-75
2023/06/30 11:11:50;;;;;;;2.60;1.30;;;;;;;;;;5063242;28;20028;-76
2023/06/30 11:14:32;;;;;;;1.13;0.90;;;;;;;;;;5078787;28;20024;-76
2023/06/30 11:17:05;;;;;;;3.75;1.08;;;;;;;;;;5078475;28;20028;-76
2023/06/30 11:19:31;;;;;;;1.48;0.95;;;;;;;;;;5096741;28;20048;-76
2023/06/30 11:22:22;;;;;;;1.38;0.80;;;;;;;;;;5078718;28;20071;-76
2023/06/30 11:24:47;;;;;;;1.80;0.93;;;;;;;;;;5078670;28;20110;-76
2023/06/30 11:27:13;;;;;;;1.00;0.90;;;;;;;;;;5061610;28;20165;-75
2023/06/30 11:29:39;;;;;;;1.77;1.00;;;;;;;;;;5061560;28;20027;-75
2023/06/30 11:32:05;;;;;;;2.42;1.05;;;;;;;;;;5078691;28;20036;-75
2023/06/30 11:34:30;;;;;;;3.38;0.95;;;;;;;;;;5096469;28;20024;-75
2023/06/30 11:36:56;;;;;;;2.33;1.10;;;;;;;;;;5078338;28;20039;-75
2023/06/30 11:39:21;;;;;;;2.58;0.93;;;;;;;;;;5077862;28;20042;-74
2023/06/30 11:41:47;;;;;;;1.33;1.02;;;;;;;;;;5061422;28;20024;-76
2023/06/30 11:44:13;;;;;;;1.02;0.88;;;;;;;;;;5073603;28;20093;-76
2023/06/30 11:46:39;;;;;;;1.35;0.95;;;;;;;;;;5061386;28;20367;-76
2023/06/30 11:49:05;;;;;;;4.70;1.02;;;;;;;;;;5061129;28;20444;-76
2023/06/30 11:51:31;;;;;;;1.42;1.00;;;;;;;;;;5061695;28;20024;-76
2023/06/30 11:53:57;;;;;;;3.53;1.10;;;;;;;;;;5077728;28;20085;-76
2023/06/30 11:56:22;;;;;;;1.90;0.88;;;;;;;;;;5077571;28;20035;-76
2023/06/30 11:58:52;;;;;;;2.75;1.00;;;;;;;;;;5077749;28;20161;-77
2023/06/30 12:01:19;;;;;;;2.58;1.13;;;;;;;;;;5077857;28;20482;-76
2023/06/30 12:03:45;;;;;;;1.30;1.00;;;;;;;;;;5095984;28;20028;-76
2023/06/30 12:06:10;;;;;;;2.00;0.95;;;;;;;;;;5077431;28;20063;-76
2023/06/30 12:08:38;;;;;;;1.75;0.80;;;;;;;;;;5077348;28;20089;-76
2023/06/30 12:11:04;;;;;;;1.02;0.90;;;;;;;;;;5077274;28;20394;-77
2023/06/30 12:13:29;;;;;;;1.50;1.05;;;;;;;;;;5095440;28;20028;-77
2023/06/30 12:15:58;;;;;;;1.17;0.80;;;;;;;;;;5095395;28;20028;-76
2023/06/30 12:18:36;;;;;;;1.00;1.00;;;;;;;;;;5060359;28;20398;-76
2023/06/30 12:21:08;;;;;;;1.65;0.90;;;;;;;;;;5077588;28;20098;-76
2023/06/30 12:23:43;;;;;;;7.38;1.10;;;;;;;;;;5077486;28;20524;-76
2023/06/30 12:26:10;;;;;;;1.60;0.95;;;;;;;;;;5077304;28;20024;-76
2023/06/30 12:28:35;;;;;;;3.17;1.10;;;;;;;;;;5060270;28;20024;-75
2023/06/30 12:31:00;;;;;;;1.98;1.08;;;;;;;;;;5077268;28;20532;-76
2023/06/30 12:33:28;;;;;;;1.55;1.00;;;;;;;;;;5077141;28;20103;-75
2023/06/30 12:35:53;;;;;;;2.33;1.08;;;;;;;;;;5077257;28;20057;-76
2023/06/30 12:38:19;;;;;;;1.50;1.00;;;;;;;;;;5077107;28;20028;-76
2023/06/30 12:40:44;;;;;;;5.40;1.55;;;;;;;;;;5059914;28;20039;-75
2023/06/30 12:43:10;;;;;;;1.77;1.20;;;;;;;;;;5095136;28;20024;-76
2023/06/30 12:45:35;;;;;;;5.45;1.38;;;;;;;;;;5076755;28;20617;-76
2023/06/30 12:48:01;;;;;;;2.50;1.15;;;;;;;;;;5095008;28;20077;-76
2023/06/30 12:50:27;;;;;;;1.73;1.23;;;;;;;;;;5077267;28;20031;-76
2023/06/30 12:52:52;;;;;;;1.38;1.00;;;;;;;;;;5094989;28;20032;-76
2023/06/30 12:55:22;;;;;;;1.75;1.10;;;;;;;;;;5094940;28;20028;-76
2023/06/30 12:57:48;;;;;;;1.63;1.10;;;;;;;;;;5094715;28;20054;-75
2023/06/30 13:00:14;;;;;;;2.53;1.00;;;;;;;;;;5094796;28;20107;-75
2023/06/30 13:02:40;;;;;;;1.70;1.15;;;;;;;;;;5060716;28;20024;-75
2023/06/30 13:05:06;;;;;;;1.60;1.10;;;;;;;;;;5076445;28;20054;-75
2023/06/30 13:07:32;;;;;;;2.20;1.33;;;;;;;;;;5076213;28;20062;-75
2023/06/30 13:09:59;;;;;;;1.58;1.10;;;;;;;;;;5076207;28;20028;-75
2023/06/30 13:12:26;;;;;;;3.75;1.10;;;;;;;;;;5094301;28;20442;-75
2023/06/30 13:14:55;;;;;;;1.95;1.30;;;;;;;;;;5094579;28;20421;-75
2023/06/30 13:17:20;;;;;;;2.05;0.82;;;;;;;;;;5076183;28;20038;-75
2023/06/30 13:19:47;;;;;;;2.28;1.30;;;;;;;;;;5094692;28;20106;-75
2023/06/30 13:22:13;;;;;;;1.73;0.98;;;;;;;;;;5094215;28;20077;-75
2023/06/30 13:24:39;;;;;;;3.55;1.10;;;;;;;;;;5059297;28;20126;-75
2023/06/30 13:27:05;;;;;;;2.53;1.15;;;;;;;;;;5075968;28;20063;-75
2023/06/30 13:29:31;;;;;;;2.53;1.13;;;;;;;;;;5075211;28;20608;-75
2023/06/30 13:31:57;;;;;;;1.45;1.17;;;;;;;;;;5076305;28;20058;-76
2023/06/30 13:34:22;;;;;;;1.50;1.40;;;;;;;;;;5075903;28;20467;-75
2023/06/30 13:36:48;;;;;;;2.78;1.40;;;;;;;;;;5094644;28;20107;-75
2023/06/30 13:39:13;;;;;;;1.95;1.00;;;;;;;;;;5094268;28;20050;-75
2023/06/30 13:41:39;;;;;;;2.72;1.10;;;;;;;;;;5076007;28;20032;-76
2023/06/30 13:44:04;;;;;;;3.78;1.17;;;;;;;;;;5094169;28;20062;-76
2023/06/30 13:46:29;;;;;;;1.77;1.10;;;;;;;;;;5075721;28;20031;-75
2023/06/30 13:48:55;;;;;;;1.85;1.20;;;;;;;;;;5094190;28;20061;-75
2023/06/30 13:51:21;;;;;;;2.13;1.20;;;;;;;;;;5093952;28;20086;-76
2023/06/30 13:53:47;;;;;;;1.27;1.02;;;;;;;;;;5093933;28;20043;-76
2023/06/30 13:56:12;;;;;;;1.40;1.02;;;;;;;;;;5094172;28;20379;-75
2023/06/30 13:58:37;;;;;;;1.50;1.00;;;;;;;;;;5075581;28;20040;-75
2023/06/30 14:01:03;;;;;;;4.32;1.23;;;;;;;;;;5059340;28;20031;-75
2023/06/30 14:03:28;;;;;;;1.60;0.98;;;;;;;;;;5058677;28;20035;-76
2023/06/30 14:05:53;;;;;;;3.40;1.30;;;;;;;;;;5075291;28;20073;-75
2023/06/30 14:08:22;;;;;;;2.67;1.33;;;;;;;;;;5093981;28;20043;-75
2023/06/30 14:10:47;;;;;;;1.42;1.25;;;;;;;;;;5058911;28;20024;-75
2023/06/30 14:13:12;;;;;;;2.22;1.00;;;;;;;;;;5093558;28;20035;-75
2023/06/30 14:15:38;;;;;;;2.88;1.10;;;;;;;;;;5093703;28;20028;-75
2023/06/30 14:18:04;;;;;;;2.05;1.23;;;;;;;;;;5093592;28;20028;-75
2023/06/30 14:20:29;;;;;;;2.28;1.25;;;;;;;;;;5075674;28;20056;-75
2023/06/30 14:22:55;;;;;;;1.77;1.15;;;;;;;;;;5075770;28;20024;-75
2023/06/30 14:25:22;;;;;;;1.50;1.00;;;;;;;;;;5075759;28;20024;-75
2023/06/30 14:27:48;;;;;;;1.30;1.10;;;;;;;;;;5093351;28;20026;-75
2023/06/30 14:30:13;;;;;;;2.05;1.10;;;;;;;;;;5058611;28;20016;-77
2023/06/30 14:32:39;;;;;;;3.88;1.10;;;;;;;;;;5093343;28;20028;-75
2023/06/30 14:35:04;;;;;;;1.67;1.17;;;;;;;;;;5093748;28;20028;-74
2023/06/30 14:37:30;;;;;;;2.08;1.10;;;;;;;;;;5075427;28;20475;-75
2023/06/30 14:39:55;;;;;;;1.20;1.10;;;;;;;;;;5093721;28;20024;-75